Time;durP1;ratioP1;P1;durP2;ratioP2;P2;SDS_P1;SDS_P2;PMS_P1;PMS_P2;Temp;Humidity;BMP_temperature;BMP_pressure;BME280_temperature;BME280_humidity;BME280_pressure;Samples;Min_cycle;Max_cycle;Signal;HPM_P1;HPM_P2
2022/06/05 00:01:34;;;;;;;5.00;3.50;;;17.40;99.90;;;;;;5052609;28;20437;-45
2022/06/05 00:04:08;;;;;;;3.80;3.40;;;17.40;99.90;;;;;;5052884;28;20514;-47
2022/06/05 00:06:39;;;;;;;4.07;3.20;;;17.50;99.90;;;;;;5053119;28;20441;-48
2022/06/05 00:09:17;;;;;;;8.87;3.83;;;17.50;99.90;;;;;;5052551;28;20465;-45
2022/06/05 00:11:49;;;;;;;7.17;3.83;;;17.60;99.90;;;;;;5052432;28;20438;-50
2022/06/05 00:14:16;;;;;;;4.73;3.17;;;17.60;99.90;;;;;;5052552;28;20445;-46
2022/06/05 00:16:45;;;;;;;4.90;3.40;;;17.60;99.90;;;;;;5052245;28;20524;-45
2022/06/05 00:19:12;;;;;;;5.87;3.43;;;17.60;99.90;;;;;;5052238;28;20449;-45
2022/06/05 00:21:39;;;;;;;6.13;3.43;;;17.60;99.90;;;;;;5052373;28;21016;-44
2022/06/05 00:24:06;;;;;;;3.97;2.93;;;17.50;99.90;;;;;;5052288;28;21012;-44
2022/06/05 00:26:44;;;;;;;4.70;3.30;;;17.60;99.90;;;;;;5052474;28;20475;-45
2022/06/05 00:29:22;;;;;;;7.87;4.03;;;17.40;99.90;;;;;;5052129;28;20930;-50
2022/06/05 00:32:02;;;;;;;3.83;3.30;;;17.10;99.90;;;;;;5052279;28;20441;-45
2022/06/05 00:34:29;;;;;;;4.23;3.27;;;17.00;99.90;;;;;;5052198;28;20437;-47
2022/06/05 00:37:14;;;;;;;5.60;3.10;;;17.10;99.90;;;;;;5052023;28;20838;-46
2022/06/05 00:39:47;;;;;;;4.90;3.40;;;17.20;99.90;;;;;;5051741;28;20473;-45
2022/06/05 00:42:17;;;;;;;6.53;3.70;;;17.30;99.90;;;;;;5052265;28;20495;-46
2022/06/05 00:44:48;;;;;;;7.07;3.33;;;17.40;99.90;;;;;;5052261;28;20447;-45
2022/06/05 00:47:21;;;;;;;6.00;4.20;;;17.40;99.90;;;;;;5051723;28;20501;-45
2022/06/05 00:49:52;;;;;;;5.23;2.83;;;17.40;99.90;;;;;;5051593;28;20877;-45
2022/06/05 00:52:21;;;;;;;3.80;3.13;;;17.30;99.90;;;;;;5052089;28;20583;-45
2022/06/05 00:54:48;;;;;;;6.23;2.93;;;17.40;99.90;;;;;;5051755;28;20444;-45
2022/06/05 00:57:17;;;;;;;3.87;2.80;;;17.40;99.90;;;;;;5051685;28;20497;-45
2022/06/05 00:59:45;;;;;;;5.03;3.47;;;17.40;99.90;;;;;;5051468;28;20441;-45
2022/06/05 01:02:13;;;;;;;4.10;2.80;;;17.40;99.90;;;;;;5051498;28;20827;-45
2022/06/05 01:04:43;;;;;;;4.10;3.30;;;17.40;99.90;;;;;;5051605;28;20477;-45
2022/06/05 01:07:10;;;;;;;3.40;2.70;;;17.40;99.90;;;;;;5051582;28;20457;-45
2022/06/05 01:09:39;;;;;;;6.20;3.40;;;17.30;99.90;;;;;;5051423;28;20469;-46
2022/06/05 01:12:14;;;;;;;5.80;3.07;;;17.10;99.90;;;;;;5051202;28;20473;-47
2022/06/05 01:14:56;;;;;;;6.13;3.00;;;17.10;99.90;;;;;;5051541;28;20531;-44
2022/06/05 01:17:32;;;;;;;3.57;3.27;;;17.20;99.90;;;;;;5051486;28;20468;-44
2022/06/05 01:20:08;;;;;;;5.00;3.30;;;16.70;99.90;;;;;;5050840;28;20540;-44
2022/06/05 01:23:09;;;;;;;5.80;3.50;;;16.50;99.90;;;;;;5051444;28;20491;-44
2022/06/05 01:26:07;;;;;;;6.13;3.63;;;16.30;99.90;;;;;;5051387;28;20441;-46
2022/06/05 01:28:39;;;;;;;8.87;3.20;;;16.50;99.90;;;;;;5044144;28;20575;-45
2022/06/05 01:31:13;;;;;;;6.60;4.43;;;16.70;99.90;;;;;;5051124;28;20943;-46
2022/06/05 01:33:45;;;;;;;3.60;3.00;;;16.80;99.90;;;;;;5051217;28;21087;-45
2022/06/05 01:36:20;;;;;;;6.60;3.30;;;16.90;99.90;;;;;;5051187;28;20510;-44
2022/06/05 01:38:54;;;;;;;7.87;3.17;;;17.00;99.90;;;;;;5050714;28;20468;-49
2022/06/05 01:41:27;;;;;;;5.03;3.10;;;17.10;99.90;;;;;;5050729;28;20477;-45
2022/06/05 01:43:59;;;;;;;4.57;3.43;;;17.10;99.90;;;;;;5051231;28;20438;-45
2022/06/05 01:46:34;;;;;;;4.80;3.00;;;17.10;99.90;;;;;;5051206;28;20821;-46
2022/06/05 01:49:09;;;;;;;4.30;3.17;;;17.10;99.90;;;;;;5124121;22;20515;-45
2022/06/05 01:51:42;;;;;;;8.80;3.90;;;17.10;99.90;;;;;;5071404;28;20420;-49
2022/06/05 01:54:13;;;;;;;7.10;4.00;;;17.10;99.90;;;;;;5070882;28;20522;-45
2022/06/05 01:56:45;;;;;;;7.33;3.30;;;17.10;99.90;;;;;;5071156;28;20444;-47
2022/06/05 01:59:16;;;;;;;5.13;2.73;;;17.10;99.90;;;;;;5070832;28;20464;-46
2022/06/05 02:01:49;;;;;;;4.00;2.70;;;17.10;99.90;;;;;;5070967;28;20440;-45
2022/06/05 02:04:20;;;;;;;3.93;2.80;;;17.20;99.90;;;;;;5071190;28;20505;-44
2022/06/05 02:06:53;;;;;;;5.53;2.67;;;17.10;99.90;;;;;;5071132;28;20452;-46
2022/06/05 02:09:24;;;;;;;4.47;3.37;;;17.20;99.90;;;;;;5070602;28;20547;-44
2022/06/05 02:11:52;;;;;;;9.63;4.20;;;17.20;99.90;;;;;;5070919;28;20527;-47
2022/06/05 02:14:19;;;;;;;5.53;3.43;;;17.20;99.90;;;;;;5070785;28;20550;-46
2022/06/05 02:16:46;;;;;;;4.90;3.53;;;17.20;99.90;;;;;;5071088;28;20448;-45
2022/06/05 02:19:16;;;;;;;6.90;3.40;;;17.00;99.90;;;;;;5070529;28;20549;-48
2022/06/05 02:21:43;;;;;;;5.20;3.40;;;17.00;99.90;;;;;;5070922;28;20450;-45
2022/06/05 02:24:13;;;;;;;7.30;4.07;;;17.10;99.90;;;;;;5070463;28;20438;-46
2022/06/05 02:26:41;;;;;;;5.80;3.87;;;17.10;99.90;;;;;;5070898;28;20495;-44
2022/06/05 02:29:14;;;;;;;6.37;3.60;;;17.10;99.90;;;;;;5070531;28;20661;-44
2022/06/05 02:32:00;;;;;;;9.20;4.03;;;17.10;99.90;;;;;;5071540;28;20502;-45
2022/06/05 02:34:36;;;;;;;5.83;3.67;;;17.00;99.90;;;;;;5074402;28;20476;-45
2022/06/05 02:37:23;;;;;;;6.63;3.47;;;16.80;99.90;;;;;;5074455;28;20440;-45
2022/06/05 02:39:59;;;;;;;4.60;3.70;;;16.80;99.90;;;;;;5074272;28;20933;-45
2022/06/05 02:42:31;;;;;;;4.10;3.00;;;17.00;99.90;;;;;;5074510;28;20857;-45
2022/06/05 02:45:09;;;;;;;5.70;3.40;;;17.00;99.90;;;;;;5074286;28;20448;-45
2022/06/05 02:47:43;;;;;;;6.73;4.03;;;16.90;99.90;;;;;;5073809;28;20558;-44
2022/06/05 02:50:18;;;;;;;8.20;4.17;;;16.80;99.90;;;;;;5074141;28;20431;-44
2022/06/05 02:52:46;;;;;;;7.60;3.73;;;16.70;99.90;;;;;;5074018;28;20471;-44
2022/06/05 02:55:16;;;;;;;5.30;3.60;;;16.80;99.90;;;;;;5074187;28;20951;-45
2022/06/05 02:57:43;;;;;;;9.90;4.17;;;16.80;99.90;;;;;;5073862;28;20549;-45
2022/06/05 03:00:16;;;;;;;7.60;5.13;;;16.70;99.90;;;;;;5073545;28;20815;-46
2022/06/05 03:05:27;;;;;;;5.17;3.83;;;16.50;99.90;;;;;;5074031;28;20960;-47
2022/06/05 03:07:54;;;;;;;6.73;3.30;;;16.50;99.90;;;;;;5073675;28;20496;-45
2022/06/05 03:10:21;;;;;;;5.67;3.93;;;16.60;99.90;;;;;;5073639;28;20533;-45
2022/06/05 03:12:48;;;;;;;8.73;4.10;;;16.70;99.90;;;;;;5073933;28;20505;-45
2022/06/05 03:15:17;;;;;;;6.03;4.57;;;16.70;99.90;;;;;;5073955;28;20502;-45
2022/06/05 03:17:45;;;;;;;6.57;3.80;;;16.80;99.90;;;;;;5073623;28;20522;-48
2022/06/05 03:20:13;;;;;;;4.33;3.93;;;16.90;99.90;;;;;;5073420;28;20533;-45
2022/06/05 03:22:41;;;;;;;4.80;3.60;;;17.00;99.90;;;;;;5073531;28;20941;-45
2022/06/05 03:25:09;;;;;;;5.97;3.37;;;17.00;99.90;;;;;;5073527;28;20501;-45
2022/06/05 03:27:36;;;;;;;6.90;3.70;;;17.00;99.90;;;;;;5073795;28;20463;-46
2022/06/05 03:30:04;;;;;;;7.70;3.50;;;17.10;99.90;;;;;;5073145;28;20476;-45
2022/06/05 03:32:32;;;;;;;4.13;3.10;;;17.00;99.90;;;;;;5073717;28;20528;-45
2022/06/05 03:34:59;;;;;;;5.60;3.20;;;17.00;99.90;;;;;;5073280;28;21054;-44
2022/06/05 03:37:27;;;;;;;7.17;3.93;;;17.00;99.90;;;;;;5073198;28;20994;-45
2022/06/05 03:39:54;;;;;;;4.80;3.47;;;17.00;99.90;;;;;;5073075;28;20443;-45
2022/06/05 03:42:21;;;;;;;4.73;3.70;;;17.00;99.90;;;;;;5072912;28;20519;-44
2022/06/05 03:44:48;;;;;;;11.93;3.90;;;17.00;99.90;;;;;;5073205;28;20811;-45
2022/06/05 03:47:15;;;;;;;7.53;3.90;;;17.00;99.90;;;;;;5072919;28;20476;-48
2022/06/05 03:49:43;;;;;;;4.47;3.53;;;17.00;99.90;;;;;;5072912;28;20472;-44
2022/06/05 03:52:11;;;;;;;6.10;3.87;;;17.00;99.90;;;;;;5073351;28;20531;-44
2022/06/05 03:54:39;;;;;;;7.87;4.03;;;17.00;99.90;;;;;;5073045;28;20909;-45
2022/06/05 03:57:07;;;;;;;6.67;3.37;;;17.10;99.90;;;;;;5072828;28;20472;-45
2022/06/05 03:59:35;;;;;;;4.60;3.23;;;17.00;99.90;;;;;;5072863;28;20440;-46
2022/06/05 04:02:02;;;;;;;7.40;3.17;;;17.00;99.90;;;;;;5072938;28;20464;-49
2022/06/05 04:04:29;;;;;;;6.57;3.43;;;17.00;99.90;;;;;;5072990;28;20868;-44
2022/06/05 04:06:57;;;;;;;6.17;2.87;;;17.00;99.90;;;;;;5072547;28;20444;-48
2022/06/05 04:09:25;;;;;;;7.50;4.20;;;17.00;99.90;;;;;;5072365;28;20468;-45
2022/06/05 04:11:52;;;;;;;6.03;4.40;;;17.00;99.90;;;;;;5072697;28;20494;-46
2022/06/05 04:14:19;;;;;;;8.47;3.80;;;16.90;99.90;;;;;;5072386;28;20549;-46
2022/06/05 04:16:46;;;;;;;4.77;3.50;;;16.90;99.90;;;;;;5072348;28;20986;-45
2022/06/05 04:19:13;;;;;;;7.13;4.20;;;16.90;99.90;;;;;;5072213;28;20517;-46
2022/06/05 04:21:46;;;;;;;9.10;3.97;;;16.80;99.90;;;;;;5072730;28;20444;-45
2022/06/05 04:24:15;;;;;;;6.13;3.87;;;16.90;99.90;;;;;;5072440;28;20506;-45
2022/06/05 04:26:44;;;;;;;6.60;3.33;;;17.00;99.90;;;;;;5072405;28;20441;-45
2022/06/05 04:29:12;;;;;;;4.97;3.47;;;17.10;99.90;;;;;;5071703;28;20513;-44
2022/06/05 04:31:44;;;;;;;6.50;3.50;;;17.20;99.90;;;;;;5072356;28;20817;-44
2022/06/05 04:34:12;;;;;;;4.57;3.40;;;17.20;99.90;;;;;;5071835;28;20851;-45
2022/06/05 04:36:39;;;;;;;6.20;4.43;;;17.20;99.90;;;;;;5072196;28;20444;-45
2022/06/05 04:39:07;;;;;;;4.60;3.20;;;17.30;99.90;;;;;;5071657;28;20496;-45
2022/06/05 04:41:36;;;;;;;5.53;4.70;;;17.30;99.90;;;;;;5072283;28;20445;-46
2022/06/05 04:44:03;;;;;;;5.77;3.90;;;17.10;99.90;;;;;;5071854;28;20444;-45
2022/06/05 04:46:30;;;;;;;4.23;3.20;;;17.10;99.90;;;;;;5071730;28;20441;-44
2022/06/05 04:48:58;;;;;;;5.00;3.70;;;17.20;99.90;;;;;;5071441;28;20480;-45
2022/06/05 04:51:26;;;;;;;7.13;4.37;;;17.20;99.90;;;;;;5071884;28;20493;-45
2022/06/05 04:53:55;;;;;;;6.13;3.77;;;17.20;99.90;;;;;;5071170;28;20476;-48
2022/06/05 04:56:24;;;;;;;9.73;4.53;;;17.30;99.90;;;;;;5071294;28;20987;-45
2022/06/05 04:58:53;;;;;;;9.03;4.50;;;17.30;99.90;;;;;;5071574;28;21186;-44
2022/06/05 05:01:22;;;;;;;6.73;3.57;;;17.30;99.90;;;;;;5071597;28;20502;-45
2022/06/05 05:03:53;;;;;;;6.67;3.50;;;17.40;99.90;;;;;;5071567;28;20525;-48
2022/06/05 05:06:20;;;;;;;4.50;3.47;;;17.40;99.90;;;;;;5071525;28;20472;-48
2022/06/05 05:08:47;;;;;;;4.50;3.80;;;17.50;99.90;;;;;;5071413;28;20464;-44
2022/06/05 05:11:15;;;;;;;9.70;3.73;;;17.50;99.90;;;;;;5071612;28;20812;-45
2022/06/05 05:13:42;;;;;;;4.80;3.60;;;17.40;99.90;;;;;;5071475;28;20508;-45
2022/06/05 05:16:10;;;;;;;7.40;3.83;;;17.40;99.90;;;;;;5071337;28;20925;-45
2022/06/05 05:18:37;;;;;;;12.13;4.37;;;17.40;99.90;;;;;;5071244;28;20456;-45
2022/06/05 05:21:06;;;;;;;5.80;3.57;;;17.40;99.90;;;;;;5071186;28;20444;-44
2022/06/05 05:23:33;;;;;;;10.13;4.70;;;17.40;99.90;;;;;;5071555;28;20454;-45
2022/06/05 05:26:08;;;;;;;5.63;3.93;;;17.40;99.90;;;;;;5071102;28;20929;-45
2022/06/05 05:28:35;;;;;;;12.23;5.73;;;17.40;99.90;;;;;;5071045;28;20462;-46
2022/06/05 05:31:02;;;;;;;8.60;5.50;;;17.40;99.90;;;;;;5071231;28;20529;-45
2022/06/05 05:33:31;;;;;;;7.57;5.30;;;17.50;99.90;;;;;;5071142;28;20471;-47
2022/06/05 05:35:58;;;;;;;11.80;4.93;;;17.50;99.90;;;;;;5071366;28;20502;-46
2022/06/05 05:38:24;;;;;;;7.27;4.40;;;17.50;99.90;;;;;;5071323;28;20464;-45
2022/06/05 05:43:36;;;;;;;6.23;4.40;;;17.50;99.90;;;;;;5071221;28;20420;-46
2022/06/05 05:46:03;;;;;;;8.97;4.63;;;17.40;99.90;;;;;;5071188;28;20591;-45
2022/06/05 05:48:32;;;;;;;6.83;3.50;;;17.40;99.90;;;;;;5071024;28;21038;-45
2022/06/05 05:50:59;;;;;;;8.60;4.97;;;17.40;99.90;;;;;;5070720;28;20444;-45
2022/06/05 05:53:26;;;;;;;6.67;5.00;;;17.40;99.90;;;;;;5071076;28;20444;-45
2022/06/05 05:55:53;;;;;;;13.33;5.40;;;17.20;99.90;;;;;;5070799;28;20476;-46
2022/06/05 05:58:20;;;;;;;14.03;4.40;;;17.20;99.90;;;;;;5071177;28;20514;-45
2022/06/05 06:00:47;;;;;;;8.40;4.40;;;17.30;99.90;;;;;;5070897;28;20444;-45
2022/06/05 06:03:14;;;;;;;5.87;3.97;;;17.50;99.90;;;;;;5070943;28;20441;-44
2022/06/05 06:05:42;;;;;;;6.90;3.97;;;18.00;99.90;;;;;;5071480;28;20491;-45
2022/06/05 06:08:09;;;;;;;6.40;5.73;;;18.80;99.90;;;;;;5074900;28;20513;-45
2022/06/05 06:10:36;;;;;;;6.00;4.10;;;19.70;99.90;;;;;;5074224;28;20441;-45
2022/06/05 06:13:03;;;;;;;12.30;6.67;;;20.50;99.90;;;;;;5075066;28;20518;-45
2022/06/05 06:15:30;;;;;;;8.83;4.43;;;21.20;99.90;;;;;;5074775;28;20476;-46
2022/06/05 06:17:57;;;;;;;5.77;4.60;;;21.70;99.90;;;;;;5074601;28;20486;-45
2022/06/05 06:20:24;;;;;;;7.87;4.40;;;21.90;99.90;;;;;;5075121;28;20862;-45
2022/06/05 06:22:52;;;;;;;8.20;4.57;;;21.70;99.90;;;;;;5074538;28;20436;-45
2022/06/05 06:25:19;;;;;;;5.50;4.43;;;21.50;99.90;;;;;;5074714;28;20490;-46
2022/06/05 06:27:46;;;;;;;9.03;4.60;;;21.40;99.90;;;;;;5074349;28;20817;-45
2022/06/05 06:30:13;;;;;;;6.00;4.33;;;21.30;99.90;;;;;;5074517;28;20480;-47
2022/06/05 06:32:40;;;;;;;9.13;4.43;;;21.20;99.90;;;;;;5074569;28;20451;-45
2022/06/05 06:35:07;;;;;;;6.53;3.70;;;21.10;99.90;;;;;;5074274;28;20529;-48
2022/06/05 06:37:34;;;;;;;9.50;3.70;;;21.10;99.90;;;;;;5074182;28;20968;-45
2022/06/05 06:40:03;;;;;;;8.37;4.60;;;21.10;99.90;;;;;;5074095;28;20440;-48
2022/06/05 06:42:30;;;;;;;6.53;3.90;;;21.00;99.90;;;;;;5074353;28;20983;-46
2022/06/05 06:44:57;;;;;;;8.00;3.50;;;21.00;99.90;;;;;;5074156;28;20467;-45
2022/06/05 06:47:24;;;;;;;10.03;5.13;;;20.80;99.90;;;;;;5074037;28;20890;-45
2022/06/05 06:49:51;;;;;;;8.43;4.70;;;20.30;99.90;;;;;;5073845;28;20498;-45
2022/06/05 06:52:18;;;;;;;6.60;4.57;;;20.10;99.90;;;;;;5074262;28;20541;-46
2022/06/05 06:54:47;;;;;;;12.20;6.10;;;19.80;99.90;;;;;;5073862;28;20471;-46
2022/06/05 06:57:15;;;;;;;6.33;3.97;;;19.80;99.90;;;;;;5074084;28;20499;-45
2022/06/05 06:59:42;;;;;;;5.40;4.63;;;19.70;99.90;;;;;;5073574;28;20470;-45
2022/06/05 07:02:09;;;;;;;10.23;4.40;;;19.70;99.90;;;;;;5073915;28;20960;-47
2022/06/05 07:04:36;;;;;;;9.03;4.97;;;19.80;99.90;;;;;;5074008;28;20489;-45
2022/06/05 07:07:03;;;;;;;13.60;6.10;;;19.70;99.90;;;;;;5074162;28;20638;-45
2022/06/05 07:09:32;;;;;;;4.60;3.63;;;19.70;99.90;;;;;;5073763;28;20453;-44
2022/06/05 07:11:59;;;;;;;9.87;4.77;;;19.80;99.90;;;;;;5074119;28;20883;-45
2022/06/05 07:14:27;;;;;;;7.40;3.80;;;19.80;99.90;;;;;;5073585;28;20838;-45
2022/06/05 07:16:55;;;;;;;8.20;3.97;;;19.90;99.90;;;;;;5073535;28;20468;-45
2022/06/05 07:19:22;;;;;;;7.50;4.10;;;20.20;99.90;;;;;;5073310;28;20464;-45
2022/06/05 07:21:49;;;;;;;5.10;3.57;;;20.60;99.90;;;;;;5073530;28;20940;-45
2022/06/05 07:24:16;;;;;;;5.43;3.77;;;20.80;99.90;;;;;;5073523;28;20441;-48
2022/06/05 07:26:44;;;;;;;6.50;3.90;;;21.20;99.90;;;;;;5073730;28;20540;-45
2022/06/05 07:29:11;;;;;;;7.37;3.97;;;21.30;99.90;;;;;;5072878;28;20526;-46
2022/06/05 07:31:39;;;;;;;6.43;3.67;;;21.50;99.90;;;;;;5073305;28;20437;-46
2022/06/05 07:34:07;;;;;;;7.93;5.17;;;21.50;99.90;;;;;;5073154;28;20437;-45
2022/06/05 07:36:34;;;;;;;6.53;4.00;;;21.50;99.90;;;;;;5073616;28;20448;-45
2022/06/05 07:39:03;;;;;;;6.83;3.63;;;21.80;99.90;;;;;;5073048;28;20522;-45
2022/06/05 07:41:32;;;;;;;9.77;4.57;;;22.20;99.90;;;;;;5072996;28;20449;-45
2022/06/05 07:44:00;;;;;;;6.23;3.70;;;22.00;99.90;;;;;;5073415;28;20525;-47
2022/06/05 07:46:28;;;;;;;5.73;3.53;;;21.70;99.90;;;;;;5073163;28;20448;-45
2022/06/05 07:48:56;;;;;;;5.33;3.80;;;21.90;99.90;;;;;;5128699;22;20554;-46
2022/06/05 07:54:30;;;;;;;6.43;4.20;;;22.00;99.90;;;;;;5073079;28;20419;-48
2022/06/05 07:56:59;;;;;;;7.13;4.53;;;21.90;99.90;;;;;;5073266;28;20445;-45
2022/06/05 07:59:26;;;;;;;7.23;4.27;;;21.30;99.90;;;;;;5072546;28;20460;-43
2022/06/05 08:01:53;;;;;;;6.27;4.20;;;21.40;99.90;;;;;;5072431;28;20494;-46
2022/06/05 08:04:21;;;;;;;7.57;4.30;;;21.60;99.90;;;;;;5072636;28;20471;-45
2022/06/05 08:06:48;;;;;;;11.97;4.57;;;21.70;99.90;;;;;;5073040;28;20509;-47
2022/06/05 08:09:16;;;;;;;6.80;3.60;;;21.70;99.90;;;;;;5072302;28;20464;-45
2022/06/05 08:11:45;;;;;;;7.97;4.60;;;21.80;99.90;;;;;;5072661;28;20854;-46
2022/06/05 08:14:14;;;;;;;8.80;4.20;;;21.90;99.90;;;;;;5072871;28;20459;-46
2022/06/05 08:16:43;;;;;;;6.97;4.10;;;22.10;99.90;;;;;;5072552;28;20441;-45
2022/06/05 08:19:11;;;;;;;6.17;4.20;;;22.40;99.90;;;;;;5072341;28;20829;-45
2022/06/05 08:21:40;;;;;;;8.03;4.40;;;22.20;99.90;;;;;;5072537;28;20542;-45
2022/06/05 08:24:07;;;;;;;9.07;5.20;;;22.10;99.90;;;;;;5072791;28;20442;-45
2022/06/05 08:26:35;;;;;;;9.13;4.23;;;22.10;99.90;;;;;;5072426;28;20441;-45
2022/06/05 08:29:02;;;;;;;8.03;4.20;;;22.30;99.90;;;;;;5072048;28;20461;-46
2022/06/05 08:31:29;;;;;;;5.47;4.13;;;22.50;99.90;;;;;;5072381;28;20448;-46
2022/06/05 08:33:57;;;;;;;7.23;4.17;;;22.50;99.90;;;;;;5072121;28;20542;-50
2022/06/05 08:36:24;;;;;;;8.00;4.30;;;22.30;99.90;;;;;;5072140;28;20534;-45
2022/06/05 08:41:47;;;;;;;6.17;4.83;;;22.30;99.90;;;;;;5072051;28;20427;-45
2022/06/05 08:44:33;;;;;;;8.90;4.40;;;22.30;99.90;;;;;;5071983;28;20476;-47
2022/06/05 08:47:04;;;;;;;7.83;4.40;;;22.20;99.90;;;;;;5072107;28;20459;-46
2022/06/05 08:49:46;;;;;;;8.53;4.60;;;22.20;99.90;;;;;;5070564;28;20468;-45
2022/06/05 08:52:28;;;;;;;8.27;4.90;;;22.30;99.90;;;;;;5071713;28;20509;-49
2022/06/05 08:55:01;;;;;;;6.30;4.10;;;22.30;99.90;;;;;;5071990;28;20478;-45
2022/06/05 08:57:33;;;;;;;5.17;4.13;;;22.50;99.90;;;;;;5071668;28;20480;-48
2022/06/05 09:00:07;;;;;;;6.03;4.43;;;22.60;99.90;;;;;;5071685;28;20475;-50
2022/06/05 09:02:43;;;;;;;9.23;4.47;;;22.80;99.90;;;;;;5071590;28;20443;-48
2022/06/05 09:05:17;;;;;;;8.53;5.40;;;22.90;99.90;;;;;;5071939;28;20864;-45
2022/06/05 09:07:48;;;;;;;7.27;4.67;;;22.90;99.90;;;;;;5071364;28;20472;-46
2022/06/05 09:10:22;;;;;;;8.37;4.57;;;22.90;99.90;;;;;;5070982;28;20502;-46
2022/06/05 09:12:54;;;;;;;8.93;5.30;;;23.00;99.90;;;;;;5071945;28;20549;-46
2022/06/05 09:15:26;;;;;;;8.00;4.40;;;23.10;99.90;;;;;;5071131;28;20476;-46
2022/06/05 09:17:56;;;;;;;8.40;4.23;;;23.20;99.90;;;;;;5071566;28;20553;-48
2022/06/05 09:20:47;;;;;;;8.07;4.70;;;23.20;99.90;;;;;;5071032;28;20506;-44
2022/06/05 09:23:22;;;;;;;8.67;4.83;;;23.20;99.90;;;;;;5071466;28;20452;-47
2022/06/05 09:25:57;;;;;;;7.50;4.77;;;23.40;99.90;;;;;;5071281;28;20436;-45
2022/06/05 09:28:47;;;;;;;10.97;5.13;;;23.60;99.90;;;;;;5071217;28;20832;-46
2022/06/05 09:31:37;;;;;;;7.27;4.33;;;23.70;99.90;;;;;;5071236;28;20440;-46
2022/06/05 09:34:11;;;;;;;8.23;4.23;;;23.60;99.90;;;;;;5071044;28;20472;-46
2022/06/05 09:36:41;;;;;;;6.93;4.70;;;23.50;99.90;;;;;;5071177;28;20476;-46
2022/06/05 09:39:23;;;;;;;7.87;4.40;;;23.50;99.90;;;;;;5070750;28;20537;-43
2022/06/05 09:42:00;;;;;;;7.10;4.13;;;23.50;99.90;;;;;;5070664;28;20479;-45
2022/06/05 09:44:47;;;;;;;9.77;4.77;;;23.40;99.90;;;;;;5071246;28;20526;-43
2022/06/05 09:47:22;;;;;;;9.10;4.73;;;23.40;99.90;;;;;;5070984;28;20529;-46
2022/06/05 09:49:54;;;;;;;9.37;4.83;;;23.40;99.90;;;;;;5070832;28;20526;-47
2022/06/05 09:52:25;;;;;;;7.60;4.77;;;23.30;99.90;;;;;;5071120;28;20476;-46
2022/06/05 09:55:00;;;;;;;11.47;4.77;;;23.20;99.90;;;;;;5071139;28;20440;-46
2022/06/05 10:00:31;;;;;;;8.87;5.10;;;23.30;99.90;;;;;;5070985;28;20421;-46
2022/06/05 10:03:02;;;;;;;6.07;4.30;;;23.40;99.90;;;;;;5070548;28;20551;-44
2022/06/05 10:05:31;;;;;;;6.00;4.00;;;23.40;99.90;;;;;;5071075;28;20428;-46
2022/06/05 10:08:04;;;;;;;7.37;5.40;;;23.50;99.90;;;;;;5071004;28;20461;-45
2022/06/05 10:10:36;;;;;;;7.13;6.30;;;23.50;99.90;;;;;;5070674;28;20535;-46
2022/06/05 10:13:17;;;;;;;6.83;4.57;;;23.60;99.90;;;;;;5070445;28;20471;-47
2022/06/05 10:15:51;;;;;;;5.43;4.57;;;23.60;99.90;;;;;;5070499;28;20584;-46
2022/06/05 10:18:24;;;;;;;6.63;4.57;;;23.60;99.90;;;;;;5070612;28;21615;-45
2022/06/05 10:21:07;;;;;;;6.27;4.47;;;23.60;99.90;;;;;;5070867;28;20473;-50
2022/06/05 10:23:43;;;;;;;8.00;5.87;;;23.80;99.90;;;;;;5070972;28;20440;-46
2022/06/05 10:26:20;;;;;;;9.67;4.97;;;23.80;99.90;;;;;;5070288;28;20429;-45
2022/06/05 10:28:52;;;;;;;8.27;4.77;;;23.90;99.90;;;;;;5070620;28;20537;-45
2022/06/05 10:31:28;;;;;;;10.43;5.07;;;24.00;99.90;;;;;;5070748;28;20468;-50
2022/06/05 10:34:07;;;;;;;7.37;4.90;;;24.10;99.90;;;;;;5070802;28;20866;-45
2022/06/05 10:36:53;;;;;;;8.20;4.73;;;24.10;99.90;;;;;;5070634;28;20476;-46
2022/06/05 10:39:26;;;;;;;12.03;5.10;;;24.20;99.90;;;;;;5070421;28;20471;-47
2022/06/05 10:42:09;;;;;;;30.97;10.37;;;24.10;99.90;;;;;;5070644;28;20539;-45
2022/06/05 10:44:43;;;;;;;11.47;4.73;;;24.20;99.90;;;;;;5070234;28;20486;-50
2022/06/05 10:47:14;;;;;;;7.17;4.80;;;24.40;99.90;;;;;;5069072;28;20465;-46
2022/06/05 10:49:48;;;;;;;6.80;5.67;;;24.40;99.90;;;;;;5068725;28;20529;-50
2022/06/05 10:52:27;;;;;;;8.10;5.50;;;24.40;99.90;;;;;;5069119;28;20476;-48
2022/06/05 10:55:00;;;;;;;6.30;5.07;;;24.80;99.90;;;;;;5072951;28;20871;-46
2022/06/05 10:57:33;;;;;;;6.67;4.90;;;24.90;99.90;;;;;;5073033;28;20476;-45
2022/06/05 11:00:06;;;;;;;7.77;5.97;;;25.00;99.90;;;;;;5073085;28;20522;-45
2022/06/05 11:02:50;;;;;;;8.90;5.00;;;25.10;99.90;;;;;;5074290;28;20869;-46
2022/06/05 11:05:38;;;;;;;7.53;4.60;;;25.20;99.90;;;;;;5074049;28;20471;-45
2022/06/05 11:08:23;;;;;;;8.73;4.53;;;25.30;99.90;;;;;;5074069;28;20464;-46
2022/06/05 11:13:53;;;;;;;6.40;5.00;;;25.50;99.90;;;;;;5074197;28;20557;-46
2022/06/05 11:16:31;;;;;;;7.70;4.63;;;25.80;99.90;;;;;;5073454;28;20563;-46
2022/06/05 11:19:12;;;;;;;10.90;4.40;;;25.90;99.90;;;;;;5073440;28;21034;-45
2022/06/05 11:21:42;;;;;;;6.67;4.87;;;25.90;99.90;;;;;;5073897;28;20533;-46
2022/06/05 11:24:19;;;;;;;8.07;5.03;;;26.20;99.90;;;;;;5073630;28;20941;-46
2022/06/05 11:26:54;;;;;;;6.47;5.10;;;26.20;99.90;;;;;;5073963;28;20536;-44
2022/06/05 11:29:27;;;;;;;5.70;4.53;;;26.20;99.90;;;;;;5073427;28;20492;-45
2022/06/05 11:32:13;;;;;;;13.03;5.00;;;26.20;99.90;;;;;;5073221;28;20494;-46
2022/06/05 11:34:50;;;;;;;7.13;4.60;;;26.20;99.90;;;;;;5073323;28;20502;-44
2022/06/05 11:37:28;;;;;;;8.00;4.83;;;26.30;99.90;;;;;;5073644;28;20503;-44
2022/06/05 11:40:01;;;;;;;7.63;5.13;;;26.20;99.90;;;;;;5073170;28;20491;-45
2022/06/05 11:42:31;;;;;;;5.90;5.37;;;26.20;99.90;;;;;;5073327;28;20476;-44
2022/06/05 11:45:10;;;;;;;6.00;4.00;;;26.20;99.90;;;;;;5073161;28;21006;-45
2022/06/05 11:47:50;;;;;;;5.77;3.90;;;26.30;99.90;;;;;;5073132;28;20447;-44
2022/06/05 11:50:28;;;;;;;6.63;5.23;;;26.20;99.90;;;;;;5072969;28;20963;-45
2022/06/05 11:53:04;;;;;;;8.30;5.10;;;26.20;99.90;;;;;;5072653;28;20961;-46
2022/06/05 11:55:37;;;;;;;6.57;4.50;;;26.30;99.90;;;;;;5072894;28;20463;-44
2022/06/05 11:58:11;;;;;;;6.80;4.80;;;26.30;99.90;;;;;;5073148;28;20456;-44
2022/06/05 12:00:43;;;;;;;7.57;4.37;;;26.30;99.90;;;;;;5072627;28;20841;-45
2022/06/05 12:03:17;;;;;;;6.43;4.33;;;26.50;99.90;;;;;;5072828;28;20445;-44
2022/06/05 12:05:52;;;;;;;7.27;4.30;;;26.60;99.90;;;;;;5072887;28;20450;-45
2022/06/05 12:08:23;;;;;;;6.37;4.80;;;26.50;99.90;;;;;;5073116;28;20460;-49
2022/06/05 12:10:55;;;;;;;11.50;4.77;;;26.50;99.90;;;;;;5072270;28;20905;-44
2022/06/05 12:13:56;;;;;;;8.47;4.20;;;26.40;99.90;;;;;;5072666;28;20444;-47
2022/06/05 12:16:33;;;;;;;7.53;4.40;;;26.50;99.90;;;;;;5065826;28;20472;-44
2022/06/05 12:19:10;;;;;;;5.47;4.13;;;26.40;99.90;;;;;;5072400;28;20551;-47
2022/06/05 12:21:46;;;;;;;5.40;4.10;;;26.40;99.90;;;;;;5072546;28;20444;-44
2022/06/05 12:24:18;;;;;;;7.60;4.40;;;26.40;99.90;;;;;;5072483;28;20454;-46
2022/06/05 12:26:52;;;;;;;7.43;4.20;;;26.30;99.90;;;;;;5072309;28;20781;-44
2022/06/05 12:29:24;;;;;;;5.50;4.70;;;26.30;99.90;;;;;;5071873;28;20993;-46
2022/06/05 12:31:58;;;;;;;7.93;4.67;;;26.40;99.90;;;;;;5072479;28;20494;-48
2022/06/05 12:34:29;;;;;;;8.40;4.97;;;26.30;99.90;;;;;;5072553;28;20535;-45
2022/06/05 12:37:02;;;;;;;7.30;4.53;;;26.30;99.90;;;;;;5072015;28;20476;-44
2022/06/05 12:39:33;;;;;;;6.23;4.43;;;26.40;99.90;;;;;;5071931;28;20490;-44
2022/06/05 12:42:17;;;;;;;8.80;4.80;;;26.60;99.90;;;;;;5072264;28;20448;-45
2022/06/05 12:44:47;;;;;;;9.77;5.57;;;26.60;99.90;;;;;;5072119;28;20468;-45
2022/06/05 12:47:23;;;;;;;7.67;4.57;;;26.60;99.90;;;;;;5071965;28;20536;-45
2022/06/05 12:50:05;;;;;;;5.23;4.17;;;26.60;99.90;;;;;;5071489;28;20503;-44
2022/06/05 12:52:38;;;;;;;5.07;3.90;;;26.60;99.90;;;;;;5071796;28;20449;-44
2022/06/05 12:55:11;;;;;;;5.60;4.10;;;26.80;99.90;;;;;;5072180;28;20505;-46
2022/06/05 12:57:48;;;;;;;7.20;4.70;;;26.90;99.90;;;;;;5071672;28;20476;-48
2022/06/05 13:00:19;;;;;;;5.83;4.33;;;26.80;99.90;;;;;;5071648;28;20476;-45
2022/06/05 13:02:51;;;;;;;5.37;4.83;;;26.70;99.90;;;;;;5071847;28;20472;-45
2022/06/05 13:05:30;;;;;;;6.97;4.23;;;26.60;99.90;;;;;;5071784;28;20491;-44
2022/06/05 13:08:03;;;;;;;7.40;4.77;;;26.50;99.90;;;;;;5071543;28;20468;-44
2022/06/05 13:10:36;;;;;;;5.47;4.30;;;26.40;99.90;;;;;;5070998;28;20444;-44
2022/06/05 13:13:13;;;;;;;7.60;4.80;;;26.40;99.90;;;;;;5071780;28;20805;-44
2022/06/05 13:15:44;;;;;;;5.90;4.30;;;26.40;99.90;;;;;;5070517;28;20953;-45
2022/06/05 13:18:22;;;;;;;11.23;4.73;;;26.50;99.90;;;;;;5071789;28;20553;-47
2022/06/05 13:21:10;;;;;;;6.33;4.90;;;26.50;99.90;;;;;;5071425;28;20472;-44
2022/06/05 13:23:43;;;;;;;6.43;4.57;;;26.50;99.90;;;;;;5071367;28;20440;-44
2022/06/05 13:26:19;;;;;;;5.17;4.70;;;26.50;99.90;;;;;;5071313;28;20446;-44